Time;durP1;ratioP1;P1;durP2;ratioP2;P2;SDS_P1;SDS_P2;PMS_P1;PMS_P2;Temp;Humidity;BMP_temperature;BMP_pressure;BME280_temperature;BME280_humidity;BME280_pressure;Samples;Min_cycle;Max_cycle;Signal;HPM_P1;HPM_P2
2023/02/02 00:01:59;;;;;;;8.38;6.78;;;4.60;79.90;;;;;;5089519;28;20032;-60
2023/02/02 00:04:28;;;;;;;9.55;6.50;;;4.60;79.90;;;;;;5089922;28;20075;-60
2023/02/02 00:06:56;;;;;;;10.35;6.85;;;4.60;80.00;;;;;;5089566;28;20119;-59
2023/02/02 00:09:22;;;;;;;8.27;6.25;;;4.60;80.20;;;;;;5087521;28;20450;-59
2023/02/02 00:11:49;;;;;;;7.35;5.82;;;4.60;80.30;;;;;;5080616;28;20085;-50
2023/02/02 00:14:16;;;;;;;7.50;6.15;;;4.60;80.30;;;;;;5089214;28;20115;-49
2023/02/02 00:16:45;;;;;;;7.10;5.80;;;4.60;80.20;;;;;;5084310;28;20040;-60
2023/02/02 00:19:26;;;;;;;7.45;6.15;;;4.50;80.20;;;;;;5074969;28;20064;-61
2023/02/02 00:21:53;;;;;;;9.18;6.60;;;4.60;80.20;;;;;;5091334;28;20028;-60
2023/02/02 00:24:19;;;;;;;10.32;6.47;;;4.60;80.50;;;;;;5079485;28;20367;-59
2023/02/02 00:26:48;;;;;;;10.63;6.90;;;4.70;80.50;;;;;;5088742;28;20032;-61
2023/02/02 00:29:19;;;;;;;6.72;5.97;;;4.70;80.30;;;;;;5088029;28;20024;-60
2023/02/02 00:31:45;;;;;;;;;;;4.80;80.10;;;;;;5086474;28;20069;-61
2023/02/02 00:34:14;;;;;;;8.75;5.95;;;4.80;79.90;;;;;;5088275;28;19962;-61
2023/02/02 00:36:41;;;;;;;10.27;6.30;;;4.90;79.80;;;;;;5088920;28;20044;-61
2023/02/02 00:39:08;;;;;;;9.02;6.57;;;4.90;79.70;;;;;;5080461;28;20032;-61
2023/02/02 00:41:34;;;;;;;8.05;6.32;;;4.80;79.70;;;;;;5093483;28;20025;-60
2023/02/02 00:46:44;;;;;;;7.90;6.10;;;4.90;79.40;;;;;;5091671;28;20043;-61
2023/02/02 00:49:10;;;;;;;8.20;5.97;;;4.90;79.20;;;;;;5090497;28;20036;-59
2023/02/02 00:51:36;;;;;;;9.07;6.80;;;4.90;79.20;;;;;;5088667;28;20035;-60
2023/02/02 00:54:02;;;;;;;8.00;6.00;;;4.80;79.40;;;;;;5089578;28;20367;-60
2023/02/02 00:56:28;;;;;;;6.57;5.78;;;4.80;79.60;;;;;;5090326;28;20482;-60
2023/02/02 00:58:54;;;;;;;8.15;5.70;;;4.80;79.50;;;;;;5085829;28;20024;-60
2023/02/02 01:01:20;;;;;;;8.13;6.03;;;4.80;79.50;;;;;;5084365;28;20497;-65
2023/02/02 01:03:48;;;;;;;10.05;6.10;;;4.80;79.60;;;;;;5087975;28;20035;-63
2023/02/02 01:06:14;;;;;;;10.50;6.07;;;4.70;79.70;;;;;;5088013;28;20056;-64
2023/02/02 01:08:40;;;;;;;6.80;5.68;;;4.70;79.80;;;;;;5084798;28;20120;-63
2023/02/02 01:11:06;;;;;;;7.25;6.10;;;4.70;79.80;;;;;;5090046;28;20032;-62
2023/02/02 01:13:32;;;;;;;6.85;6.00;;;4.70;80.50;;;;;;5088315;28;20058;-61
2023/02/02 01:15:59;;;;;;;8.18;6.13;;;4.70;80.00;;;;;;5088649;28;20035;-62
2023/02/02 01:18:26;;;;;;;6.93;5.78;;;4.70;80.00;;;;;;5089467;28;20039;-63
2023/02/02 01:21:04;;;;;;;6.47;5.57;;;4.60;80.10;;;;;;5086977;28;20028;-59
2023/02/02 01:23:31;;;;;;;8.05;5.22;;;4.60;80.10;;;;;;5085794;28;20033;-60
2023/02/02 01:25:59;;;;;;;7.82;5.55;;;4.60;80.40;;;;;;5083394;28;20055;-61
2023/02/02 01:28:26;;;;;;;8.13;5.85;;;4.60;80.40;;;;;;5074877;28;20040;-61
2023/02/02 01:30:52;;;;;;;6.90;5.38;;;4.60;80.60;;;;;;5083108;28;20028;-63
2023/02/02 01:33:19;;;;;;;9.15;6.18;;;4.70;80.40;;;;;;5093993;28;20024;-64
2023/02/02 01:35:54;;;;;;;8.40;6.00;;;4.70;80.30;;;;;;5091529;28;20032;-60
2023/02/02 01:38:21;;;;;;;8.07;5.70;;;4.70;80.30;;;;;;5073871;28;20048;-59
2023/02/02 01:40:50;;;;;;;7.95;5.18;;;4.80;80.20;;;;;;5080809;28;20059;-61
2023/02/02 01:43:42;;;;;;;10.77;5.63;;;4.80;80.20;;;;;;5085956;28;20047;-60
2023/02/02 01:46:13;;;;;;;7.95;5.38;;;4.80;79.70;;;;;;5086821;28;20409;-64
2023/02/02 01:48:41;;;;;;;7.73;5.17;;;4.80;80.00;;;;;;5088108;28;20028;-64
2023/02/02 01:51:12;;;;;;;7.03;5.45;;;4.80;80.00;;;;;;5085020;28;20020;-63
2023/02/02 01:53:38;;;;;;;5.82;4.88;;;4.80;79.80;;;;;;5091866;28;20036;-64
2023/02/02 01:56:07;;;;;;;7.47;5.28;;;4.80;79.90;;;;;;5086316;28;20184;-61
2023/02/02 01:58:36;;;;;;;7.88;4.90;;;4.80;79.80;;;;;;5087792;28;20088;-61
2023/02/02 02:01:02;;;;;;;6.30;4.90;;;4.80;79.80;;;;;;5087322;28;20032;-61
2023/02/02 02:03:30;;;;;;;7.40;4.65;;;4.80;79.90;;;;;;5086759;28;20469;-61
2023/02/02 02:06:06;;;;;;;7.30;5.25;;;4.80;79.80;;;;;;5079673;28;20091;-51
2023/02/02 02:08:46;;;;;;;6.85;4.95;;;4.80;79.70;;;;;;5082247;28;20040;-51
2023/02/02 02:11:12;;;;;;;8.13;5.03;;;4.80;79.70;;;;;;5077624;28;20020;-50
2023/02/02 02:16:22;;;;;;;5.88;4.60;;;4.80;79.90;;;;;;5082865;28;20097;-46
2023/02/02 02:19:01;;;;;;;5.07;4.22;;;4.80;80.00;;;;;;5083378;28;20424;-48
2023/02/02 02:28:00;;;;;;;6.63;4.25;;;4.70;79.90;;;;;;5087618;28;20043;-62
2023/02/02 02:31:21;;;;;;;5.57;3.95;;;4.60;79.80;;;;;;5089744;28;20028;-60
2023/02/02 02:34:12;;;;;;;5.90;3.90;;;4.60;79.80;;;;;;5022480;28;20598;-60
2023/02/02 02:36:57;;;;;;;7.65;4.50;;;4.60;80.10;;;;;;5079526;28;20032;-60
2023/02/02 02:39:49;;;;;;;5.20;4.00;;;4.60;80.20;;;;;;5083451;28;20043;-60
2023/02/02 02:42:24;;;;;;;6.22;4.00;;;4.60;80.20;;;;;;5086366;28;20028;-61
2023/02/02 02:44:52;;;;;;;5.32;4.03;;;4.60;80.40;;;;;;5085296;28;20028;-61
2023/02/02 02:47:19;;;;;;;4.72;3.90;;;4.60;80.60;;;;;;5088137;28;20104;-60
2023/02/02 02:49:46;;;;;;;5.97;4.40;;;4.60;80.60;;;;;;5084484;28;20036;-60
2023/02/02 02:52:12;;;;;;;8.82;5.15;;;4.60;80.80;;;;;;5082870;28;20032;-61
2023/02/02 02:54:48;;;;;;;6.03;4.43;;;4.60;80.90;;;;;;5088347;28;20161;-61
2023/02/02 02:57:44;;;;;;;5.72;4.15;;;4.70;81.00;;;;;;5069868;28;20397;-60
2023/02/02 03:00:37;;;;;;;5.82;4.57;;;4.80;80.80;;;;;;5078462;28;20094;-54
2023/02/02 03:03:18;;;;;;;5.95;4.60;;;4.80;80.50;;;;;;5083062;28;20029;-52
2023/02/02 03:06:20;;;;;;;4.82;4.05;;;4.90;80.40;;;;;;5077113;28;20036;-52
2023/02/02 03:08:58;;;;;;;;;;;4.80;80.20;;;;;;5080004;28;20028;-55
2023/02/02 03:11:24;;;;;;;7.45;3.97;;;4.80;80.30;;;;;;5088498;28;19908;-62
2023/02/02 03:13:50;;;;;;;5.45;3.90;;;4.90;80.30;;;;;;5089875;28;20034;-61
2023/02/02 03:16:16;;;;;;;4.93;4.40;;;4.90;80.20;;;;;;5083216;28;20086;-63
2023/02/02 03:18:42;;;;;;;5.82;4.85;;;4.90;80.00;;;;;;5084123;28;20433;-63
2023/02/02 03:21:08;;;;;;;7.82;5.70;;;4.90;80.00;;;;;;5077028;28;20056;-61
2023/02/02 03:23:33;;;;;;;11.10;6.88;;;4.90;79.90;;;;;;5077713;28;20031;-61
2023/02/02 03:25:59;;;;;;;9.57;7.20;;;4.90;79.70;;;;;;5085318;28;20496;-63
2023/02/02 03:28:26;;;;;;;11.73;6.93;;;5.00;79.70;;;;;;5085155;28;20077;-63
2023/02/02 03:30:54;;;;;;;9.98;6.95;;;5.00;79.60;;;;;;5073945;28;20033;-60
2023/02/02 03:33:21;;;;;;;9.15;7.35;;;5.00;79.70;;;;;;5077792;28;20028;-62
2023/02/02 03:35:47;;;;;;;11.95;7.13;;;5.10;79.70;;;;;;5090419;28;20028;-61
2023/02/02 03:38:12;;;;;;;12.13;7.55;;;5.10;79.50;;;;;;5089062;28;20035;-61
2023/02/02 03:40:39;;;;;;;9.48;6.45;;;5.10;79.50;;;;;;5083782;28;20420;-48
2023/02/02 03:43:05;;;;;;;10.23;6.40;;;5.10;79.20;;;;;;5086325;28;20059;-54
2023/02/02 03:45:34;;;;;;;8.25;6.55;;;5.10;79.20;;;;;;5075199;28;20033;-62
2023/02/02 03:48:00;;;;;;;8.82;6.38;;;5.10;79.20;;;;;;5083965;28;20085;-62
2023/02/02 03:50:26;;;;;;;9.65;7.07;;;5.00;79.40;;;;;;5090366;28;20115;-49
2023/02/02 03:52:53;;;;;;;9.82;6.90;;;5.00;79.60;;;;;;5076024;28;20115;-53
2023/02/02 03:55:19;;;;;;;8.45;6.60;;;4.90;79.80;;;;;;5088455;28;20024;-63
2023/02/02 03:57:45;;;;;;;8.88;6.93;;;4.90;80.00;;;;;;5079615;28;20118;-60
2023/02/02 04:00:11;;;;;;;10.60;7.75;;;5.00;80.00;;;;;;5084200;28;20490;-54
2023/02/02 04:02:36;;;;;;;10.30;7.53;;;5.00;79.80;;;;;;5092266;28;20028;-52
2023/02/02 04:05:02;;;;;;;14.90;10.45;;;5.00;79.60;;;;;;5082457;28;20078;-50
2023/02/02 04:07:27;;;;;;;13.48;10.15;;;5.10;79.40;;;;;;5090427;28;20059;-62
2023/02/02 04:09:53;;;;;;;11.90;9.32;;;5.10;79.20;;;;;;5093830;28;20370;-62
2023/02/02 04:12:19;;;;;;;16.00;10.40;;;5.00;79.00;;;;;;5089555;28;20036;-63
2023/02/02 04:14:44;;;;;;;13.30;9.73;;;5.10;78.80;;;;;;5085233;28;20039;-60
2023/02/02 04:17:10;;;;;;;13.73;9.43;;;5.00;79.00;;;;;;5091774;28;20036;-53
2023/02/02 04:19:36;;;;;;;14.95;11.00;;;5.00;79.00;;;;;;5090436;28;20043;-52
2023/02/02 04:22:01;;;;;;;14.07;10.18;;;5.00;79.10;;;;;;5088534;28;20031;-62
2023/02/02 04:24:27;;;;;;;13.77;10.02;;;5.00;79.10;;;;;;5088598;28;20043;-61
2023/02/02 04:26:52;;;;;;;17.55;11.30;;;5.00;79.20;;;;;;5090555;28;20032;-60
2023/02/02 04:29:18;;;;;;;16.33;11.57;;;5.00;79.20;;;;;;5092339;28;20028;-60
2023/02/02 04:31:44;;;;;;;19.05;11.73;;;5.00;79.20;;;;;;5090314;28;20510;-62
2023/02/02 04:34:09;;;;;;;17.33;12.07;;;5.00;79.20;;;;;;5093399;28;20064;-61
2023/02/02 04:36:35;;;;;;;16.42;11.45;;;5.00;79.10;;;;;;5089922;28;20047;-62
2023/02/02 04:39:01;;;;;;;19.05;11.43;;;5.00;79.10;;;;;;5080749;28;20523;-62
2023/02/02 04:41:26;;;;;;;16.75;10.32;;;5.00;79.10;;;;;;5088922;28;20062;-60
2023/02/02 04:43:52;;;;;;;13.65;9.27;;;4.90;79.20;;;;;;5077293;28;20071;-60
2023/02/02 04:46:18;;;;;;;14.00;9.68;;;4.90;79.30;;;;;;5081274;28;20099;-55
2023/02/02 04:48:43;;;;;;;13.15;8.35;;;4.90;79.60;;;;;;5089658;28;20022;-49
2023/02/02 04:51:12;;;;;;;10.18;8.05;;;4.90;79.70;;;;;;5085863;28;20028;-63
2023/02/02 04:53:39;;;;;;;11.88;7.65;;;4.90;79.60;;;;;;5084735;28;20432;-64
2023/02/02 04:56:10;;;;;;;10.45;7.63;;;4.90;79.60;;;;;;5090131;28;20611;-60
2023/02/02 04:58:36;;;;;;;12.50;8.10;;;4.90;79.50;;;;;;5091031;28;20028;-60
2023/02/02 05:01:08;;;;;;;10.00;7.07;;;4.90;79.50;;;;;;5092520;28;20081;-60
2023/02/02 05:03:34;;;;;;;8.10;6.80;;;5.00;79.40;;;;;;5081488;28;20032;-60
2023/02/02 05:06:01;;;;;;;9.75;6.65;;;4.90;79.30;;;;;;5083041;28;20028;-59
2023/02/02 05:08:27;;;;;;;12.77;6.72;;;4.90;79.30;;;;;;5090839;28;20046;-60
2023/02/02 05:10:52;;;;;;;9.93;6.90;;;4.80;79.30;;;;;;5089048;28;20115;-60
2023/02/02 05:13:18;;;;;;;12.13;7.53;;;4.90;79.50;;;;;;5079267;28;20028;-60
2023/02/02 05:15:43;;;;;;;8.98;6.43;;;4.90;79.60;;;;;;5088959;28;20123;-64
2023/02/02 05:18:09;;;;;;;10.77;6.97;;;4.90;79.40;;;;;;5087132;28;20040;-64
2023/02/02 05:20:35;;;;;;;11.50;7.65;;;4.90;79.40;;;;;;5080761;28;20036;-60
2023/02/02 05:23:00;;;;;;;9.00;6.72;;;4.80;79.40;;;;;;5082184;28;20067;-60
2023/02/02 05:25:26;;;;;;;9.90;6.80;;;4.80;79.50;;;;;;5090570;28;20024;-61
2023/02/02 05:27:51;;;;;;;7.95;6.15;;;4.80;79.50;;;;;;5092438;28;20036;-60
2023/02/02 05:30:17;;;;;;;9.57;6.25;;;4.70;80.20;;;;;;5090082;28;20397;-65
2023/02/02 05:32:43;;;;;;;8.60;6.25;;;4.70;79.80;;;;;;5079213;28;20032;-63
2023/02/02 05:35:10;;;;;;;8.32;6.03;;;4.70;80.00;;;;;;5076403;28;20032;-64
2023/02/02 05:37:36;;;;;;;8.13;6.28;;;4.70;79.90;;;;;;5078756;28;20035;-61
2023/02/02 05:40:03;;;;;;;9.10;6.53;;;4.70;79.90;;;;;;5086222;28;20493;-61
2023/02/02 05:42:28;;;;;;;10.32;6.50;;;4.70;79.90;;;;;;5083491;28;20484;-63
2023/02/02 05:44:54;;;;;;;9.23;6.32;;;4.70;80.00;;;;;;5088205;28;20102;-62
2023/02/02 05:47:20;;;;;;;7.65;6.15;;;4.70;80.00;;;;;;5086511;28;20024;-63
2023/02/02 05:49:46;;;;;;;7.15;5.93;;;4.70;80.00;;;;;;5087508;28;20459;-62
2023/02/02 05:52:18;;;;;;;8.20;6.18;;;4.60;80.10;;;;;;5085452;28;20034;-60
2023/02/02 05:54:44;;;;;;;10.32;6.35;;;4.70;80.00;;;;;;5083499;28;20157;-60
2023/02/02 05:57:09;;;;;;;10.60;6.18;;;4.70;80.00;;;;;;5082659;28;20052;-60
2023/02/02 05:59:35;;;;;;;10.35;6.03;;;4.60;80.00;;;;;;5076511;28;20035;-60
2023/02/02 06:02:01;;;;;;;11.60;6.85;;;4.70;80.10;;;;;;5088401;28;20088;-62
2023/02/02 06:04:26;;;;;;;9.20;6.18;;;4.70;80.30;;;;;;5088282;28;20119;-64
2023/02/02 06:06:52;;;;;;;9.18;5.75;;;4.70;80.30;;;;;;5091692;28;20440;-48
2023/02/02 06:09:17;;;;;;;8.27;6.40;;;4.70;80.30;;;;;;5087798;28;20042;-49
2023/02/02 06:11:44;;;;;;;8.45;6.43;;;4.80;80.20;;;;;;5077490;28;20028;-60
2023/02/02 06:14:10;;;;;;;8.30;6.13;;;4.90;80.00;;;;;;5087220;28;20680;-60
2023/02/02 06:16:36;;;;;;;10.98;6.75;;;4.90;79.90;;;;;;5087089;28;20036;-60
2023/02/02 06:19:02;;;;;;;8.70;6.43;;;5.00;79.60;;;;;;5084511;28;20066;-58
2023/02/02 06:21:30;;;;;;;8.90;6.35;;;5.00;79.50;;;;;;5086070;28;20111;-60
2023/02/02 06:23:56;;;;;;;8.40;6.35;;;4.90;79.50;;;;;;5075705;28;20028;-61
2023/02/02 06:26:21;;;;;;;6.47;5.80;;;4.90;79.50;;;;;;5081995;28;20058;-61
2023/02/02 06:28:49;;;;;;;9.23;6.47;;;4.90;79.60;;;;;;5074124;28;20130;-62
2023/02/02 06:31:18;;;;;;;9.48;6.68;;;4.90;79.70;;;;;;5077070;28;20493;-59
2023/02/02 06:34:02;;;;;;;10.38;6.70;;;4.90;79.90;;;;;;5084840;28;20036;-61
2023/02/02 06:36:27;;;;;;;9.35;6.30;;;4.90;79.90;;;;;;5084396;28;20465;-62
2023/02/02 06:38:55;;;;;;;9.27;6.15;;;5.00;79.90;;;;;;5077181;28;20036;-61
2023/02/02 06:41:21;;;;;;;8.30;6.13;;;5.10;79.60;;;;;;5078029;28;20026;-60
2023/02/02 06:43:47;;;;;;;7.93;5.65;;;5.10;79.30;;;;;;5093476;28;20454;-60
2023/02/02 06:46:14;;;;;;;6.95;5.95;;;5.10;79.20;;;;;;5091890;28;20032;-61
2023/02/02 06:48:39;;;;;;;8.48;5.50;;;5.10;79.40;;;;;;5086711;28;20062;-61
2023/02/02 06:51:05;;;;;;;7.32;6.10;;;5.10;79.50;;;;;;5084399;28;20061;-61
2023/02/02 06:53:32;;;;;;;7.82;6.13;;;5.20;79.30;;;;;;5085038;28;20028;-63
2023/02/02 06:56:00;;;;;;;10.13;7.25;;;5.20;79.10;;;;;;5075728;28;20402;-61
2023/02/02 06:58:27;;;;;;;9.15;7.00;;;5.20;79.00;;;;;;5084485;28;20393;-62
2023/02/02 07:00:53;;;;;;;9.43;6.88;;;5.30;79.00;;;;;;5077314;28;20032;-62
2023/02/02 07:03:20;;;;;;;8.88;6.63;;;5.30;78.80;;;;;;5080098;28;20426;-61
2023/02/02 07:05:48;;;;;;;8.57;6.72;;;5.40;78.80;;;;;;5071007;28;20071;-61
2023/02/02 07:08:14;;;;;;;9.38;6.78;;;5.40;79.40;;;;;;5067658;28;20040;-62
2023/02/02 07:10:41;;;;;;;8.82;6.60;;;5.50;79.30;;;;;;5065020;28;20032;-60
2023/02/02 07:13:07;;;;;;;10.13;7.20;;;5.50;78.50;;;;;;5071546;28;20034;-60
2023/02/02 07:15:33;;;;;;;9.50;7.05;;;5.60;78.50;;;;;;5073012;28;20385;-63
2023/02/02 07:18:00;;;;;;;11.55;7.28;;;5.60;78.50;;;;;;5065941;28;20040;-61
2023/02/02 07:20:26;;;;;;;10.05;6.72;;;5.60;78.40;;;;;;5059789;28;20024;-62
2023/02/02 07:22:52;;;;;;;8.15;6.65;;;5.60;78.30;;;;;;5074191;28;20034;-60
2023/02/02 07:25:17;;;;;;;11.45;7.63;;;5.60;78.40;;;;;;5069070;28;20486;-61
2023/02/02 07:27:43;;;;;;;8.95;7.00;;;5.60;78.40;;;;;;5074575;28;20108;-62
2023/02/02 07:30:09;;;;;;;11.25;7.25;;;5.70;78.40;;;;;;5066416;28;20668;-61
2023/02/02 07:32:35;;;;;;;10.82;7.88;;;5.70;78.40;;;;;;5075751;28;20028;-61
2023/02/02 07:35:01;;;;;;;11.65;7.85;;;5.80;78.20;;;;;;5077824;28;20042;-61
2023/02/02 07:37:26;;;;;;;11.75;7.40;;;5.80;78.00;;;;;;5076800;28;20061;-63
2023/02/02 07:39:52;;;;;;;10.68;7.40;;;5.90;77.90;;;;;;5081424;28;20069;-62
2023/02/02 07:42:17;;;;;;;10.25;7.50;;;6.00;77.80;;;;;;5068602;28;20033;-60
2023/02/02 07:44:43;;;;;;;12.15;9.07;;;6.10;77.60;;;;;;5065046;28;20043;-61
2023/02/02 07:47:09;;;;;;;10.85;7.63;;;6.20;77.40;;;;;;5071751;28;20352;-62
2023/02/02 07:49:35;;;;;;;11.57;8.10;;;6.20;77.10;;;;;;5077395;28;20536;-62
2023/02/02 07:52:00;;;;;;;13.57;8.57;;;6.30;76.90;;;;;;5068797;28;20043;-61
2023/02/02 07:54:26;;;;;;;13.20;9.63;;;6.30;76.70;;;;;;5066277;28;20024;-61
2023/02/02 07:56:51;;;;;;;14.60;10.60;;;6.40;76.60;;;;;;5075394;28;20154;-62
2023/02/02 07:59:17;;;;;;;15.48;10.95;;;6.40;76.40;;;;;;5072179;28;20036;-62
2023/02/02 08:01:43;;;;;;;12.68;9.88;;;6.50;76.10;;;;;;5076804;28;20160;-62
2023/02/02 08:04:08;;;;;;;13.65;10.02;;;6.50;76.00;;;;;;5073565;28;20143;-62
2023/02/02 08:06:36;;;;;;;14.07;9.85;;;6.60;76.00;;;;;;5080461;28;20041;-64
2023/02/02 08:09:04;;;;;;;15.27;10.00;;;6.60;75.80;;;;;;5080751;28;22040;-61
2023/02/02 08:11:30;;;;;;;12.27;9.57;;;6.70;75.70;;;;;;5077905;28;20040;-62
2023/02/02 08:13:58;;;;;;;13.27;9.85;;;6.70;75.50;;;;;;5066315;28;20086;-62
2023/02/02 08:16:25;;;;;;;13.00;9.38;;;6.80;75.40;;;;;;5065614;28;20043;-63
2023/02/02 08:18:51;;;;;;;12.20;8.98;;;6.80;75.40;;;;;;5074902;28;20036;-60
2023/02/02 08:21:18;;;;;;;14.55;8.60;;;6.80;75.30;;;;;;5075996;28;20390;-59
2023/02/02 08:23:47;;;;;;;10.70;7.40;;;6.80;75.90;;;;;;5075099;28;20082;-60
2023/02/02 08:26:24;;;;;;;11.13;8.38;;;6.70;75.50;;;;;;5072508;28;20119;-60
2023/02/02 08:28:55;;;;;;;10.25;7.53;;;6.60;75.80;;;;;;5069450;28;20031;-60
2023/02/02 08:31:28;;;;;;;10.43;7.40;;;6.60;76.00;;;;;;5071499;28;20036;-60
2023/02/02 08:37:15;;;;;;;8.43;6.45;;;6.60;76.00;;;;;;5071766;28;20055;-60
2023/02/02 08:39:41;;;;;;;8.38;6.38;;;6.60;76.20;;;;;;5067393;28;20048;-59
2023/02/02 08:42:06;;;;;;;8.55;5.82;;;6.60;76.10;;;;;;5063251;28;20117;-62
2023/02/02 08:44:32;;;;;;;7.70;5.75;;;6.60;76.30;;;;;;5065653;28;20547;-61
2023/02/02 08:46:57;;;;;;;8.77;6.45;;;6.60;76.30;;;;;;5068068;28;20066;-59
2023/02/02 08:49:23;;;;;;;7.35;5.22;;;6.60;76.30;;;;;;5068910;28;20032;-60
2023/02/02 08:51:49;;;;;;;7.38;5.85;;;6.60;76.20;;;;;;5074455;28;20040;-59
2023/02/02 08:54:15;;;;;;;9.50;5.57;;;6.60;76.10;;;;;;5074921;28;20024;-60
2023/02/02 08:56:40;;;;;;;7.80;5.78;;;6.60;76.10;;;;;;5069739;28;20047;-60
2023/02/02 08:59:06;;;;;;;6.82;5.30;;;6.70;76.10;;;;;;5076007;28;20127;-60
2023/02/02 09:01:33;;;;;;;8.07;5.70;;;6.70;75.90;;;;;;5065730;28;20020;-60
2023/02/02 09:04:05;;;;;;;9.00;5.90;;;6.70;75.90;;;;;;5071023;28;20035;-61
2023/02/02 09:06:39;;;;;;;6.30;5.32;;;6.70;75.70;;;;;;5065880;28;20027;-62
2023/02/02 09:09:07;;;;;;;8.07;6.05;;;6.70;75.70;;;;;;5065197;28;20079;-62
2023/02/02 09:11:34;;;;;;;7.00;5.40;;;6.60;75.60;;;;;;5066558;28;20366;-63
2023/02/02 09:14:05;;;;;;;6.85;5.68;;;6.60;75.70;;;;;;5064935;28;20056;-62
2023/02/02 09:16:32;;;;;;;6.75;5.45;;;6.60;75.80;;;;;;5069893;28;20043;-63
2023/02/02 09:18:58;;;;;;;8.07;5.60;;;6.70;75.90;;;;;;5076681;28;20028;-63
2023/02/02 09:21:24;;;;;;;7.57;5.63;;;6.70;76.10;;;;;;5070016;28;20050;-61
2023/02/02 09:23:55;;;;;;;6.93;5.30;;;6.80;76.10;;;;;;5065419;28;20032;-60
2023/02/02 09:26:23;;;;;;;7.57;5.63;;;6.90;75.80;;;;;;5066214;28;20036;-61
2023/02/02 09:28:52;;;;;;;6.85;5.07;;;6.90;75.80;;;;;;5056296;28;20094;-60
2023/02/02 09:31:19;;;;;;;6.22;5.43;;;7.00;75.50;;;;;;5074521;28;20041;-62
2023/02/02 09:33:45;;;;;;;6.70;5.28;;;7.10;75.40;;;;;;5072171;28;20024;-61
2023/02/02 09:36:17;;;;;;;6.18;5.15;;;7.10;75.20;;;;;;5070706;28;20035;-60
2023/02/02 09:38:43;;;;;;;5.68;4.82;;;7.20;75.10;;;;;;5057025;28;20071;-59
2023/02/02 09:41:30;;;;;;;6.97;5.05;;;7.20;74.90;;;;;;5069877;28;20098;-58
2023/02/02 09:44:36;;;;;;;8.60;5.32;;;7.20;75.00;;;;;;5067903;28;20404;-59
2023/02/02 09:47:01;;;;;;;7.72;5.60;;;7.30;75.00;;;;;;5015667;28;20051;-61
2023/02/02 09:49:32;;;;;;;9.00;5.90;;;7.40;75.00;;;;;;5063468;28;20465;-59
2023/02/02 09:52:07;;;;;;;9.18;6.13;;;7.50;74.70;;;;;;5061723;28;20394;-62
2023/02/02 09:54:39;;;;;;;6.85;5.40;;;7.60;74.30;;;;;;5064246;28;20024;-61
2023/02/02 09:57:13;;;;;;;6.35;4.90;;;7.60;74.20;;;;;;5070161;28;20043;-61
2023/02/02 09:59:41;;;;;;;7.18;5.20;;;7.60;74.20;;;;;;5068172;28;20438;-59
2023/02/02 10:02:17;;;;;;;7.72;5.88;;;7.60;74.10;;;;;;5056811;28;20142;-59
2023/02/02 10:04:48;;;;;;;8.25;5.65;;;7.60;74.00;;;;;;5062090;28;20040;-60
2023/02/02 10:07:37;;;;;;;8.50;6.47;;;7.60;74.00;;;;;;5055828;28;20043;-61
2023/02/02 10:10:13;;;;;;;7.80;5.50;;;7.60;74.10;;;;;;5057276;28;20036;-60
2023/02/02 10:12:48;;;;;;;7.97;5.43;;;7.70;74.20;;;;;;5047325;28;20028;-61
2023/02/02 10:15:38;;;;;;;9.35;6.32;;;7.70;73.90;;;;;;5064577;28;20128;-59
2023/02/02 10:18:21;;;;;;;7.82;5.75;;;7.80;73.60;;;;;;5064133;28;20054;-60
2023/02/02 10:20:55;;;;;;;6.93;5.30;;;7.80;73.70;;;;;;5063756;28;20164;-59
2023/02/02 10:23:31;;;;;;;6.90;5.50;;;7.90;73.80;;;;;;5060526;28;20170;-56
2023/02/02 10:26:21;;;;;;;7.03;5.30;;;7.90;73.90;;;;;;5053532;28;20038;-63
2023/02/02 10:29:12;;;;;;;7.65;5.20;;;8.00;73.70;;;;;;5064790;28;20028;-61
2023/02/02 10:32:21;;;;;;;7.90;5.38;;;8.10;73.40;;;;;;5065767;28;20348;-59
2023/02/02 10:34:56;;;;;;;6.07;5.00;;;8.10;73.20;;;;;;5058548;28;20839;-61
2023/02/02 10:37:41;;;;;;;8.18;5.70;;;8.10;74.10;;;;;;5070058;28;20046;-61
2023/02/02 10:40:28;;;;;;;8.13;5.47;;;8.10;73.30;;;;;;5062735;28;20035;-59
2023/02/02 10:46:02;;;;;;;6.72;5.03;;;8.30;73.30;;;;;;5056149;28;20136;-55
2023/02/02 10:48:34;;;;;;;6.00;4.90;;;8.30;73.10;;;;;;5055094;28;20042;-60
2023/02/02 10:51:05;;;;;;;7.30;5.43;;;8.40;73.00;;;;;;5055277;28;20028;-59
2023/02/02 10:53:32;;;;;;;6.15;5.00;;;8.40;72.80;;;;;;5064787;28;20035;-59
2023/02/02 10:56:05;;;;;;;6.72;5.40;;;8.40;72.70;;;;;;5063369;28;20047;-60
2023/02/02 10:58:45;;;;;;;7.07;5.60;;;8.40;72.90;;;;;;5065598;28;20032;-60
2023/02/02 11:01:12;;;;;;;6.80;5.70;;;8.40;72.80;;;;;;5055226;28;20043;-61
2023/02/02 11:03:39;;;;;;;6.95;5.40;;;8.50;72.70;;;;;;5049097;28;20037;-61
2023/02/02 11:08:56;;;;;;;8.55;6.25;;;8.50;72.40;;;;;;5046497;28;20062;-57
2023/02/02 11:11:25;;;;;;;7.60;5.75;;;8.60;72.30;;;;;;5064147;28;20051;-60
2023/02/02 11:14:00;;;;;;;8.75;6.32;;;8.60;72.20;;;;;;5055722;28;20032;-58
2023/02/02 11:16:30;;;;;;;8.40;6.70;;;8.70;72.00;;;;;;5061684;28;20032;-59
2023/02/02 11:18:57;;;;;;;8.32;6.45;;;8.70;71.90;;;;;;5065058;28;20071;-60
2023/02/02 11:21:33;;;;;;;6.90;5.78;;;8.80;71.80;;;;;;5064654;28;20093;-59
2023/02/02 11:24:19;;;;;;;9.38;6.05;;;8.90;71.70;;;;;;5068101;28;20059;-61
2023/02/02 11:26:58;;;;;;;6.50;5.43;;;8.90;71.50;;;;;;5062910;28;20036;-60
2023/02/02 11:29:43;;;;;;;8.25;6.10;;;9.00;71.40;;;;;;5067688;28;20031;-58
2023/02/02 11:32:36;;;;;;;7.53;6.57;;;9.00;71.40;;;;;;5051146;28;20100;-59
2023/02/02 11:35:22;;;;;;;8.30;6.38;;;9.00;71.20;;;;;;5056487;28;20047;-62
2023/02/02 11:37:55;;;;;;;7.85;6.07;;;9.00;71.10;;;;;;5052925;28;20036;-60
2023/02/02 11:40:29;;;;;;;7.78;5.68;;;9.10;70.80;;;;;;5063946;28;20036;-59
2023/02/02 11:42:57;;;;;;;6.97;4.95;;;9.10;70.80;;;;;;5061981;28;20529;-61
2023/02/02 11:45:33;;;;;;;6.45;5.13;;;9.10;70.60;;;;;;5061145;28;20119;-61
2023/02/02 11:48:13;;;;;;;4.57;3.70;;;9.00;70.40;;;;;;5056422;28;20040;-59
2023/02/02 11:50:46;;;;;;;5.20;3.70;;;9.00;70.50;;;;;;5049505;28;20040;-60
2023/02/02 11:53:33;;;;;;;5.25;4.00;;;8.90;70.50;;;;;;5039420;28;20761;-59
2023/02/02 11:56:06;;;;;;;4.05;3.40;;;8.90;70.60;;;;;;5054792;28;20044;-59
2023/02/02 11:58:47;;;;;;;4.00;3.60;;;8.80;70.80;;;;;;5029621;28;20154;-60
2023/02/02 12:01:26;;;;;;;4.55;3.58;;;8.80;70.80;;;;;;5034087;28;20634;-59
2023/02/02 12:03:54;;;;;;;4.63;3.75;;;8.80;71.20;;;;;;5044260;28;20037;-59
2023/02/02 12:06:26;;;;;;;4.35;3.47;;;8.80;71.10;;;;;;5056655;28;20131;-61
2023/02/02 12:08:53;;;;;;;;;;;8.90;70.90;;;;;;5053738;28;20094;-60
2023/02/02 12:11:39;;;;;;;3.90;3.50;;;8.90;70.50;;;;;;5057712;28;19934;-59
2023/02/02 12:14:13;;;;;;;6.10;4.50;;;8.90;70.60;;;;;;5059226;28;20036;-55
2023/02/02 12:16:52;;;;;;;5.55;4.40;;;8.90;70.50;;;;;;5061673;28;20107;-58
2023/02/02 12:19:33;;;;;;;5.13;4.57;;;8.80;70.50;;;;;;5055483;28;20028;-58
2023/02/02 12:22:26;;;;;;;5.70;5.10;;;8.80;70.50;;;;;;5056365;28;20031;-59
2023/02/02 12:25:02;;;;;;;5.95;4.97;;;8.80;70.40;;;;;;5045814;28;20047;-61
2023/02/02 12:28:01;;;;;;;6.32;4.75;;;8.80;70.60;;;;;;5045013;28;20039;-59
2023/02/02 12:30:55;;;;;;;5.35;4.75;;;8.90;70.30;;;;;;5054566;28;20064;-59
2023/02/02 12:33:29;;;;;;;6.28;5.20;;;8.80;70.00;;;;;;5047733;28;20032;-58
2023/02/02 12:36:22;;;;;;;7.35;5.70;;;8.70;69.90;;;;;;5052715;28;20760;-60
2023/02/02 12:39:18;;;;;;;6.13;4.88;;;8.60;69.90;;;;;;5050227;28;20082;-58
2023/02/02 12:41:47;;;;;;;8.07;6.22;;;8.50;70.20;;;;;;5050664;28;20085;-59
2023/02/02 12:44:31;;;;;;;7.35;5.97;;;8.40;70.30;;;;;;5051116;28;20024;-59
2023/02/02 12:47:10;;;;;;;6.70;5.40;;;8.40;70.40;;;;;;5055910;28;20036;-61
2023/02/02 12:49:59;;;;;;;6.03;5.18;;;8.50;70.50;;;;;;5065547;28;20063;-59
2023/02/02 12:52:37;;;;;;;5.32;4.72;;;8.40;69.80;;;;;;5064981;28;20043;-60
2023/02/02 12:55:31;;;;;;;6.80;5.07;;;8.40;70.10;;;;;;5051634;28;20047;-58
2023/02/02 12:58:16;;;;;;;6.05;5.28;;;8.30;70.20;;;;;;5054911;28;20645;-58
2023/02/02 13:01:20;;;;;;;5.38;4.75;;;8.20;69.80;;;;;;5054952;28;20125;-58
2023/02/02 13:04:29;;;;;;;6.25;5.05;;;8.10;69.60;;;;;;5042866;28;20028;-56
2023/02/02 13:07:27;;;;;;;5.65;5.05;;;8.00;69.80;;;;;;5028005;28;20090;-58
2023/02/02 13:10:16;;;;;;;5.80;4.70;;;7.90;70.00;;;;;;5049716;28;20043;-58
2023/02/02 13:12:49;;;;;;;7.00;4.82;;;7.70;69.80;;;;;;5058681;28;20078;-56
2023/02/02 13:15:21;;;;;;;6.18;5.30;;;7.70;70.10;;;;;;5062154;28;20039;-59
2023/02/02 13:17:55;;;;;;;5.93;5.32;;;7.60;70.10;;;;;;5056651;28;20044;-58
2023/02/02 13:20:35;;;;;;;7.47;5.45;;;7.50;70.10;;;;;;5058686;28;20031;-59
2023/02/02 13:23:10;;;;;;;6.82;5.95;;;7.50;70.30;;;;;;5053492;28;20036;-59
2023/02/02 13:26:06;;;;;;;6.18;5.40;;;7.40;70.30;;;;;;5067009;28;20131;-57
2023/02/02 13:29:10;;;;;;;5.35;4.85;;;7.40;70.50;;;;;;5054929;28;20067;-60
2023/02/02 13:31:54;;;;;;;6.88;5.50;;;7.30;70.40;;;;;;5056280;28;20038;-59
2023/02/02 13:34:39;;;;;;;6.15;5.30;;;7.30;70.50;;;;;;5034882;28;20036;-59
2023/02/02 13:37:17;;;;;;;7.60;6.15;;;7.30;70.40;;;;;;5046724;28;20047;-57
2023/02/02 13:39:58;;;;;;;6.15;5.38;;;7.20;70.40;;;;;;5051249;28;20128;-59